< < Back
Terminal Aerodrome Forecast


Current Version              Previous Versions:   1  2  3  4  5  6  7  8  9  

Terminal Aerodrome Forecast

895
FTUS42 KFFC 220500
TAFCSG
TAF
KCSG 220540Z 2206/2306 33003KT P6SM SKC
     FM221500 01007KT P6SM SKC
     FM230000 00000KT P6SM SKC=



Latest METAR

943
SAUS70 KWBC 221554
MTRCSG
METAR KCSG 221551Z 03007KT 10SM CLR 17/04 A3012 RMK AO2 SLP195
T01670039


USA.gov is the U.S. government's official web portal to all federal, state and local government web resources and services.